sensor_id;sensor_type;location;lat;lon;timestamp;pressure;altitude;pressure_sealevel;temperature;humidity
69971;BME280;57301;50.328;8.542;2023-09-12T00:01:12;98148.78;;;16.57;92.95
69971;BME280;57301;50.328;8.542;2023-09-12T00:03:39;98147.38;;;16.68;92.57
69971;BME280;57301;50.328;8.542;2023-09-12T00:06:06;98143.19;;;16.59;93.70
69971;BME280;57301;50.328;8.542;2023-09-12T00:08:32;98150.47;;;16.65;93.51
69971;BME280;57301;50.328;8.542;2023-09-12T00:11:03;98154.81;;;16.66;93.70
69971;BME280;57301;50.328;8.542;2023-09-12T00:13:30;98149.31;;;16.87;92.83
69971;BME280;57301;50.328;8.542;2023-09-12T00:15:57;98151.22;;;16.93;92.35
69971;BME280;57301;50.328;8.542;2023-09-12T00:18:24;98157.56;;;16.73;92.17
69971;BME280;57301;50.328;8.542;2023-09-12T00:20:54;98149.13;;;16.82;91.17
69971;BME280;57301;50.328;8.542;2023-09-12T00:23:21;98153.56;;;16.62;91.75
69971;BME280;57301;50.328;8.542;2023-09-12T00:25:50;98157.00;;;16.43;93.04
69971;BME280;57301;50.328;8.542;2023-09-12T00:28:18;98141.91;;;16.48;93.39
69971;BME280;57301;50.328;8.542;2023-09-12T00:30:45;98148.31;;;16.47;93.59
69971;BME280;57301;50.328;8.542;2023-09-12T00:33:11;98141.53;;;16.51;93.14
69971;BME280;57301;50.328;8.542;2023-09-12T00:35:38;98141.97;;;16.61;92.31
69971;BME280;57301;50.328;8.542;2023-09-12T00:38:05;98137.81;;;16.59;92.58
69971;BME280;57301;50.328;8.542;2023-09-12T00:40:33;98141.41;;;16.73;93.55
69971;BME280;57301;50.328;8.542;2023-09-12T00:42:59;98139.28;;;16.68;92.82
69971;BME280;57301;50.328;8.542;2023-09-12T00:45:25;98136.75;;;16.53;93.18
69971;BME280;57301;50.328;8.542;2023-09-12T00:47:53;98137.94;;;16.03;94.36
69971;BME280;57301;50.328;8.542;2023-09-12T00:50:22;98140.34;;;16.26;92.87
69971;BME280;57301;50.328;8.542;2023-09-12T00:52:49;98147.84;;;16.37;92.67
69971;BME280;57301;50.328;8.542;2023-09-12T00:55:16;98139.00;;;16.50;91.79
69971;BME280;57301;50.328;8.542;2023-09-12T00:57:43;98139.22;;;16.48;92.65
69971;BME280;57301;50.328;8.542;2023-09-12T01:00:18;98129.97;;;16.64;91.29
69971;BME280;57301;50.328;8.542;2023-09-12T01:02:46;98132.34;;;16.39;92.11
69971;BME280;57301;50.328;8.542;2023-09-12T01:05:19;98135.38;;;16.23;92.34
69971;BME280;57301;50.328;8.542;2023-09-12T01:07:46;98134.69;;;16.14;92.12
69971;BME280;57301;50.328;8.542;2023-09-12T01:10:13;98138.41;;;16.13;91.69
69971;BME280;57301;50.328;8.542;2023-09-12T01:12:47;98128.84;;;16.04;92.69
69971;BME280;57301;50.328;8.542;2023-09-12T01:15:14;98132.34;;;16.04;93.06
69971;BME280;57301;50.328;8.542;2023-09-12T01:17:42;98134.53;;;16.22;92.14
69971;BME280;57301;50.328;8.542;2023-09-12T01:20:33;98137.22;;;16.22;93.01
69971;BME280;57301;50.328;8.542;2023-09-12T01:23:33;98137.59;;;16.19;92.53
69971;BME280;57301;50.328;8.542;2023-09-12T01:26:40;98139.38;;;16.05;91.32
69971;BME280;57301;50.328;8.542;2023-09-12T01:29:08;98137.69;;;15.98;91.50
69971;BME280;57301;50.328;8.542;2023-09-12T01:31:37;98131.44;;;15.91;92.66
69971;BME280;57301;50.328;8.542;2023-09-12T01:34:10;98129.84;;;15.96;92.43
69971;BME280;57301;50.328;8.542;2023-09-12T01:36:37;98130.84;;;15.95;93.12
69971;BME280;57301;50.328;8.542;2023-09-12T01:39:04;98136.13;;;16.10;93.02
69971;BME280;57301;50.328;8.542;2023-09-12T01:41:32;98136.75;;;16.12;93.14
69971;BME280;57301;50.328;8.542;2023-09-12T01:44:02;98136.50;;;16.07;92.70
69971;BME280;57301;50.328;8.542;2023-09-12T01:46:30;98138.53;;;15.98;91.83
69971;BME280;57301;50.328;8.542;2023-09-12T01:48:58;98135.38;;;15.95;91.81
69971;BME280;57301;50.328;8.542;2023-09-12T01:51:26;98127.72;;;15.92;91.46
69971;BME280;57301;50.328;8.542;2023-09-12T01:53:54;98134.78;;;15.71;92.10
69971;BME280;57301;50.328;8.542;2023-09-12T01:56:23;98128.41;;;15.72;91.72
69971;BME280;57301;50.328;8.542;2023-09-12T01:58:49;98125.28;;;15.69;91.81
69971;BME280;57301;50.328;8.542;2023-09-12T02:01:16;98128.00;;;15.47;92.63
69971;BME280;57301;50.328;8.542;2023-09-12T02:03:44;98117.56;;;15.38;93.12
69971;BME280;57301;50.328;8.542;2023-09-12T02:06:10;98127.16;;;15.47;92.69
69971;BME280;57301;50.328;8.542;2023-09-12T02:08:37;98130.47;;;15.49;92.54
69971;BME280;57301;50.328;8.542;2023-09-12T02:11:03;98121.13;;;15.66;91.74
69971;BME280;57301;50.328;8.542;2023-09-12T02:13:30;98124.25;;;15.70;92.84
69971;BME280;57301;50.328;8.542;2023-09-12T02:16:03;98123.72;;;15.81;91.90
69971;BME280;57301;50.328;8.542;2023-09-12T02:18:30;98133.03;;;15.78;92.15
69971;BME280;57301;50.328;8.542;2023-09-12T02:20:58;98140.00;;;15.51;92.36
69971;BME280;57301;50.328;8.542;2023-09-12T02:23:25;98132.75;;;15.52;91.25
69971;BME280;57301;50.328;8.542;2023-09-12T02:25:51;98137.13;;;15.31;92.57
69971;BME280;57301;50.328;8.542;2023-09-12T02:28:18;98129.34;;;15.37;92.60
69971;BME280;57301;50.328;8.542;2023-09-12T02:30:44;98131.88;;;15.45;92.30
69971;BME280;57301;50.328;8.542;2023-09-12T02:33:10;98131.06;;;15.23;94.00
69971;BME280;57301;50.328;8.542;2023-09-12T02:35:37;98133.38;;;15.04;96.86
69971;BME280;57301;50.328;8.542;2023-09-12T02:38:04;98136.31;;;15.31;94.23
69971;BME280;57301;50.328;8.542;2023-09-12T02:40:30;98130.53;;;15.34;93.05
69971;BME280;57301;50.328;8.542;2023-09-12T02:42:57;98135.91;;;15.13;95.01
69971;BME280;57301;50.328;8.542;2023-09-12T02:45:23;98141.00;;;15.22;93.60
69971;BME280;57301;50.328;8.542;2023-09-12T02:47:50;98124.41;;;15.19;94.44
69971;BME280;57301;50.328;8.542;2023-09-12T02:50:16;98123.81;;;15.02;94.63
69971;BME280;57301;50.328;8.542;2023-09-12T02:52:43;98120.44;;;15.15;93.52
69971;BME280;57301;50.328;8.542;2023-09-12T02:55:09;98121.81;;;15.04;95.19
69971;BME280;57301;50.328;8.542;2023-09-12T02:57:36;98120.88;;;14.97;94.95
69971;BME280;57301;50.328;8.542;2023-09-12T03:00:04;98124.28;;;15.05;93.76
69971;BME280;57301;50.328;8.542;2023-09-12T03:02:33;98127.03;;;15.12;93.88
69971;BME280;57301;50.328;8.542;2023-09-12T03:05:00;98127.41;;;15.09;94.14
69971;BME280;57301;50.328;8.542;2023-09-12T03:07:30;98118.97;;;15.12;93.24
69971;BME280;57301;50.328;8.542;2023-09-12T03:09:56;98120.75;;;15.26;93.05
69971;BME280;57301;50.328;8.542;2023-09-12T03:12:23;98118.91;;;15.27;94.10
69971;BME280;57301;50.328;8.542;2023-09-12T03:14:49;98118.28;;;15.25;94.20
69971;BME280;57301;50.328;8.542;2023-09-12T03:17:16;98116.28;;;15.33;93.67
69971;BME280;57301;50.328;8.542;2023-09-12T03:19:42;98112.38;;;15.36;92.76
69971;BME280;57301;50.328;8.542;2023-09-12T03:22:09;98114.88;;;15.38;92.71
69971;BME280;57301;50.328;8.542;2023-09-12T03:24:35;98113.97;;;15.30;92.50
69971;BME280;57301;50.328;8.542;2023-09-12T03:27:02;98112.59;;;15.35;92.43
69971;BME280;57301;50.328;8.542;2023-09-12T03:29:29;98106.75;;;15.31;92.62
69971;BME280;57301;50.328;8.542;2023-09-12T03:31:55;98107.00;;;15.15;92.55
69971;BME280;57301;50.328;8.542;2023-09-12T03:34:22;98104.34;;;14.93;92.73
69971;BME280;57301;50.328;8.542;2023-09-12T03:36:48;98103.94;;;14.96;92.74
69971;BME280;57301;50.328;8.542;2023-09-12T03:39:15;98098.91;;;14.87;92.70
69971;BME280;57301;50.328;8.542;2023-09-12T03:41:41;98097.41;;;14.84;92.96
69971;BME280;57301;50.328;8.542;2023-09-12T03:44:08;98102.47;;;14.94;93.34
69971;BME280;57301;50.328;8.542;2023-09-12T03:46:35;98101.44;;;14.95;93.90
69971;BME280;57301;50.328;8.542;2023-09-12T03:49:01;98102.69;;;14.92;93.98
69971;BME280;57301;50.328;8.542;2023-09-12T03:51:28;98101.50;;;15.01;93.04
69971;BME280;57301;50.328;8.542;2023-09-12T03:53:54;98108.41;;;14.89;93.45
69971;BME280;57301;50.328;8.542;2023-09-12T03:56:21;98112.59;;;14.92;94.56
69971;BME280;57301;50.328;8.542;2023-09-12T03:58:47;98112.66;;;14.98;93.82
69971;BME280;57301;50.328;8.542;2023-09-12T04:01:14;98103.66;;;14.91;94.71
69971;BME280;57301;50.328;8.542;2023-09-12T04:03:40;98094.09;;;14.82;95.43
69971;BME280;57301;50.328;8.542;2023-09-12T04:06:07;98096.78;;;14.82;95.79
69971;BME280;57301;50.328;8.542;2023-09-12T04:08:33;98098.00;;;15.01;96.07
69971;BME280;57301;50.328;8.542;2023-09-12T04:11:00;98105.41;;;15.20;95.04
69971;BME280;57301;50.328;8.542;2023-09-12T04:13:26;98092.22;;;15.47;94.56
69971;BME280;57301;50.328;8.542;2023-09-12T04:15:52;98106.59;;;15.61;94.07
69971;BME280;57301;50.328;8.542;2023-09-12T04:18:19;98112.69;;;15.48;94.44
69971;BME280;57301;50.328;8.542;2023-09-12T04:20:48;98109.72;;;15.64;93.19
69971;BME280;57301;50.328;8.542;2023-09-12T04:23:15;98105.00;;;15.45;93.94
69971;BME280;57301;50.328;8.542;2023-09-12T04:25:42;98098.94;;;15.36;93.85
69971;BME280;57301;50.328;8.542;2023-09-12T04:28:10;98108.91;;;15.42;93.22
69971;BME280;57301;50.328;8.542;2023-09-12T04:30:37;98110.00;;;15.48;93.67
69971;BME280;57301;50.328;8.542;2023-09-12T04:33:04;98100.84;;;15.64;92.99
69971;BME280;57301;50.328;8.542;2023-09-12T04:35:33;98104.59;;;15.69;92.85
69971;BME280;57301;50.328;8.542;2023-09-12T04:38:00;98105.69;;;15.75;92.38
69971;BME280;57301;50.328;8.542;2023-09-12T04:40:26;98115.28;;;15.84;92.58
69971;BME280;57301;50.328;8.542;2023-09-12T04:42:53;98125.00;;;15.85;92.12
69971;BME280;57301;50.328;8.542;2023-09-12T04:45:20;98123.75;;;15.88;91.59
69971;BME280;57301;50.328;8.542;2023-09-12T04:47:47;98127.22;;;15.81;92.52
69971;BME280;57301;50.328;8.542;2023-09-12T04:50:13;98119.56;;;15.78;92.70
69971;BME280;57301;50.328;8.542;2023-09-12T04:52:40;98115.34;;;15.69;92.40
69971;BME280;57301;50.328;8.542;2023-09-12T04:55:06;98117.22;;;15.69;92.45
69971;BME280;57301;50.328;8.542;2023-09-12T04:57:33;98113.00;;;15.88;91.97
69971;BME280;57301;50.328;8.542;2023-09-12T04:59:59;98114.63;;;15.82;92.08
69971;BME280;57301;50.328;8.542;2023-09-12T05:02:26;98112.09;;;15.74;92.39
69971;BME280;57301;50.328;8.542;2023-09-12T05:04:52;98119.00;;;15.90;92.27
69971;BME280;57301;50.328;8.542;2023-09-12T05:07:19;98117.22;;;15.97;92.48
69971;BME280;57301;50.328;8.542;2023-09-12T05:09:46;98108.19;;;16.11;93.09
69971;BME280;57301;50.328;8.542;2023-09-12T05:12:15;98103.44;;;16.13;93.47
69971;BME280;57301;50.328;8.542;2023-09-12T05:14:41;98102.16;;;16.02;94.08
69971;BME280;57301;50.328;8.542;2023-09-12T05:17:08;98101.41;;;15.87;94.10
69971;BME280;57301;50.328;8.542;2023-09-12T05:19:34;98105.97;;;15.87;93.80
69971;BME280;57301;50.328;8.542;2023-09-12T05:22:01;98098.53;;;15.89;93.79
69971;BME280;57301;50.328;8.542;2023-09-12T05:24:27;98102.94;;;15.96;93.77
69971;BME280;57301;50.328;8.542;2023-09-12T05:26:54;98107.41;;;16.17;93.63
69971;BME280;57301;50.328;8.542;2023-09-12T05:29:20;98102.22;;;16.16;93.57
69971;BME280;57301;50.328;8.542;2023-09-12T05:31:46;98112.56;;;16.19;92.69
69971;BME280;57301;50.328;8.542;2023-09-12T05:34:16;98116.94;;;16.26;92.38
69971;BME280;57301;50.328;8.542;2023-09-12T05:36:42;98123.97;;;16.21;92.60
69971;BME280;57301;50.328;8.542;2023-09-12T05:39:09;98122.44;;;16.05;93.53
69971;BME280;57301;50.328;8.542;2023-09-12T05:41:36;98118.63;;;16.27;92.55
69971;BME280;57301;50.328;8.542;2023-09-12T05:44:02;98125.97;;;16.12;93.93
69971;BME280;57301;50.328;8.542;2023-09-12T05:46:29;98118.34;;;16.16;94.18
69971;BME280;57301;50.328;8.542;2023-09-12T05:48:55;98118.47;;;16.01;95.39
69971;BME280;57301;50.328;8.542;2023-09-12T05:51:21;98123.53;;;16.17;94.22
69971;BME280;57301;50.328;8.542;2023-09-12T05:53:48;98127.44;;;16.56;92.26
69971;BME280;57301;50.328;8.542;2023-09-12T05:56:14;98129.31;;;16.55;93.01
69971;BME280;57301;50.328;8.542;2023-09-12T05:58:41;98129.16;;;16.63;92.45
69971;BME280;57301;50.328;8.542;2023-09-12T06:01:09;98127.06;;;16.65;92.19
69971;BME280;57301;50.328;8.542;2023-09-12T06:03:35;98120.03;;;16.64;92.52
69971;BME280;57301;50.328;8.542;2023-09-12T06:06:03;98126.88;;;16.67;92.73
69971;BME280;57301;50.328;8.542;2023-09-12T06:08:29;98128.56;;;16.75;92.21
69971;BME280;57301;50.328;8.542;2023-09-12T06:10:56;98125.28;;;16.86;91.58
69971;BME280;57301;50.328;8.542;2023-09-12T06:13:22;98125.91;;;16.81;92.19
69971;BME280;57301;50.328;8.542;2023-09-12T06:15:49;98120.97;;;16.98;91.91
69971;BME280;57301;50.328;8.542;2023-09-12T06:18:15;98129.28;;;17.03;91.69
69971;BME280;57301;50.328;8.542;2023-09-12T06:20:42;98135.72;;;17.09;92.03
69971;BME280;57301;50.328;8.542;2023-09-12T06:23:09;98142.56;;;17.25;91.30
69971;BME280;57301;50.328;8.542;2023-09-12T06:25:36;98137.63;;;17.35;90.52
69971;BME280;57301;50.328;8.542;2023-09-12T06:28:03;98131.41;;;17.48;90.25
69971;BME280;57301;50.328;8.542;2023-09-12T06:30:30;98133.50;;;17.39;90.56
69971;BME280;57301;50.328;8.542;2023-09-12T06:32:56;98132.44;;;17.40;91.15
69971;BME280;57301;50.328;8.542;2023-09-12T06:35:23;98128.09;;;17.52;91.12
69971;BME280;57301;50.328;8.542;2023-09-12T06:37:49;98133.28;;;17.60;91.06
69971;BME280;57301;50.328;8.542;2023-09-12T06:40:15;98122.31;;;17.68;90.97
69971;BME280;57301;50.328;8.542;2023-09-12T06:42:42;98123.31;;;17.54;91.90
69971;BME280;57301;50.328;8.542;2023-09-12T06:45:09;98123.31;;;17.61;91.69
69971;BME280;57301;50.328;8.542;2023-09-12T06:47:36;98115.47;;;17.92;90.13
69971;BME280;57301;50.328;8.542;2023-09-12T06:50:03;98128.28;;;18.10;89.12
69971;BME280;57301;50.328;8.542;2023-09-12T06:52:31;98122.69;;;18.18;88.66
69971;BME280;57301;50.328;8.542;2023-09-12T06:54:58;98118.88;;;18.39;87.83
69971;BME280;57301;50.328;8.542;2023-09-12T06:57:24;98128.31;;;18.75;86.46
69971;BME280;57301;50.328;8.542;2023-09-12T06:59:51;98120.00;;;18.76;86.19
69971;BME280;57301;50.328;8.542;2023-09-12T07:02:17;98133.91;;;18.80;85.72
69971;BME280;57301;50.328;8.542;2023-09-12T07:04:45;98137.28;;;18.62;86.58
69971;BME280;57301;50.328;8.542;2023-09-12T07:07:11;98131.88;;;18.69;86.63
69971;BME280;57301;50.328;8.542;2023-09-12T07:09:38;98128.94;;;18.64;86.78
69971;BME280;57301;50.328;8.542;2023-09-12T07:12:04;98139.69;;;18.84;85.84
69971;BME280;57301;50.328;8.542;2023-09-12T07:14:32;98131.41;;;19.48;82.77
69971;BME280;57301;50.328;8.542;2023-09-12T07:16:58;98128.19;;;22.94;69.42
69971;BME280;57301;50.328;8.542;2023-09-12T07:19:25;98127.00;;;24.31;62.06
69971;BME280;57301;50.328;8.542;2023-09-12T07:21:51;98125.22;;;23.69;61.97
69971;BME280;57301;50.328;8.542;2023-09-12T07:24:18;98124.81;;;22.23;67.77
69971;BME280;57301;50.328;8.542;2023-09-12T07:26:44;98129.13;;;21.89;68.81
69971;BME280;57301;50.328;8.542;2023-09-12T07:29:13;98121.75;;;25.39;56.83
69971;BME280;57301;50.328;8.542;2023-09-12T07:31:42;98127.59;;;27.42;50.93
69971;BME280;57301;50.328;8.542;2023-09-12T07:34:09;98128.97;;;27.50;50.70
69971;BME280;57301;50.328;8.542;2023-09-12T07:36:36;98131.47;;;26.68;52.17
69971;BME280;57301;50.328;8.542;2023-09-12T07:39:03;98135.88;;;27.83;50.27
69971;BME280;57301;50.328;8.542;2023-09-12T07:41:30;98141.06;;;28.30;49.02
69971;BME280;57301;50.328;8.542;2023-09-12T07:43:56;98133.97;;;27.94;49.31
69971;BME280;57301;50.328;8.542;2023-09-12T07:46:23;98135.91;;;29.04;47.57
69971;BME280;57301;50.328;8.542;2023-09-12T07:48:49;98132.88;;;29.05;47.44
69971;BME280;57301;50.328;8.542;2023-09-12T07:51:19;98142.50;;;29.52;46.72
69971;BME280;57301;50.328;8.542;2023-09-12T07:53:45;98136.72;;;29.59;46.96
69971;BME280;57301;50.328;8.542;2023-09-12T07:56:15;98121.69;;;28.86;48.23
69971;BME280;57301;50.328;8.542;2023-09-12T07:58:41;98121.75;;;28.71;49.14
69971;BME280;57301;50.328;8.542;2023-09-12T08:01:09;98121.63;;;28.11;49.78
69971;BME280;57301;50.328;8.542;2023-09-12T08:03:37;98125.41;;;28.46;49.72
69971;BME280;57301;50.328;8.542;2023-09-12T08:06:05;98133.09;;;28.39;49.48
69971;BME280;57301;50.328;8.542;2023-09-12T08:08:31;98136.34;;;28.51;49.45
69971;BME280;57301;50.328;8.542;2023-09-12T08:10:58;98131.06;;;28.75;49.58
69971;BME280;57301;50.328;8.542;2023-09-12T08:13:28;98131.59;;;28.82;48.93
69971;BME280;57301;50.328;8.542;2023-09-12T08:15:56;98138.06;;;28.37;49.69
69971;BME280;57301;50.328;8.542;2023-09-12T08:18:28;98133.44;;;29.02;49.41
69971;BME280;57301;50.328;8.542;2023-09-12T08:20:55;98139.09;;;28.56;50.27
69971;BME280;57301;50.328;8.542;2023-09-12T08:23:22;98137.41;;;28.65;49.37
69971;BME280;57301;50.328;8.542;2023-09-12T08:25:49;98136.44;;;29.55;48.57
69971;BME280;57301;50.328;8.542;2023-09-12T08:28:16;98126.94;;;30.06;47.39
69971;BME280;57301;50.328;8.542;2023-09-12T08:30:44;98130.97;;;30.47;45.01
69971;BME280;57301;50.328;8.542;2023-09-12T08:33:12;98133.00;;;29.74;45.52
69971;BME280;57301;50.328;8.542;2023-09-12T08:35:39;98122.13;;;29.92;44.85
69971;BME280;57301;50.328;8.542;2023-09-12T08:38:05;98120.44;;;29.96;45.09
69971;BME280;57301;50.328;8.542;2023-09-12T08:40:32;98122.59;;;29.26;47.27
69971;BME280;57301;50.328;8.542;2023-09-12T08:43:01;98123.97;;;29.29;48.18
69971;BME280;57301;50.328;8.542;2023-09-12T08:45:30;98126.00;;;29.03;47.63
69971;BME280;57301;50.328;8.542;2023-09-12T08:47:59;98125.50;;;29.01;47.88
69971;BME280;57301;50.328;8.542;2023-09-12T08:50:26;98130.75;;;28.82;48.90
69971;BME280;57301;50.328;8.542;2023-09-12T08:52:57;98126.94;;;28.73;49.58
69971;BME280;57301;50.328;8.542;2023-09-12T08:55:34;98121.25;;;28.59;48.81
69971;BME280;57301;50.328;8.542;2023-09-12T08:58:05;98116.91;;;28.22;49.48
69971;BME280;57301;50.328;8.542;2023-09-12T09:00:32;98123.47;;;28.47;49.63
69971;BME280;57301;50.328;8.542;2023-09-12T09:02:59;98126.81;;;28.18;51.63
69971;BME280;57301;50.328;8.542;2023-09-12T09:05:27;98120.00;;;28.90;49.07
69971;BME280;57301;50.328;8.542;2023-09-12T09:07:55;98118.72;;;29.32;47.48
69971;BME280;57301;50.328;8.542;2023-09-12T09:10:22;98109.09;;;29.74;46.20
69971;BME280;57301;50.328;8.542;2023-09-12T09:13:09;98111.91;;;29.64;47.17
69971;BME280;57301;50.328;8.542;2023-09-12T09:15:37;98115.72;;;30.02;47.47
69971;BME280;57301;50.328;8.542;2023-09-12T09:18:08;98112.47;;;29.95;46.48
69971;BME280;57301;50.328;8.542;2023-09-12T09:20:36;98112.06;;;30.41;45.67
69971;BME280;57301;50.328;8.542;2023-09-12T09:23:04;98110.97;;;30.13;45.70
69971;BME280;57301;50.328;8.542;2023-09-12T09:25:32;98105.31;;;30.28;45.63
69971;BME280;57301;50.328;8.542;2023-09-12T09:28:21;98110.06;;;30.46;44.32
69971;BME280;57301;50.328;8.542;2023-09-12T09:30:49;98109.88;;;30.62;43.69
69971;BME280;57301;50.328;8.542;2023-09-12T09:33:21;98108.78;;;31.06;42.00
69971;BME280;57301;50.328;8.542;2023-09-12T09:35:48;98108.16;;;30.71;42.47
69971;BME280;57301;50.328;8.542;2023-09-12T09:38:18;98107.00;;;30.96;41.53
69971;BME280;57301;50.328;8.542;2023-09-12T09:40:45;98103.94;;;30.26;41.53
69971;BME280;57301;50.328;8.542;2023-09-12T09:43:12;98102.91;;;30.21;40.60
69971;BME280;57301;50.328;8.542;2023-09-12T09:45:45;98099.63;;;31.10;40.80
69971;BME280;57301;50.328;8.542;2023-09-12T09:48:25;98099.06;;;30.46;40.29
69971;BME280;57301;50.328;8.542;2023-09-12T09:51:02;98092.53;;;30.13;41.01
69971;BME280;57301;50.328;8.542;2023-09-12T09:53:30;98101.63;;;30.38;40.75
69971;BME280;57301;50.328;8.542;2023-09-12T09:56:14;98102.97;;;31.31;39.85
69971;BME280;57301;50.328;8.542;2023-09-12T10:01:20;98099.81;;;30.52;39.62
69971;BME280;57301;50.328;8.542;2023-09-12T10:03:48;98093.22;;;30.77;39.46
69971;BME280;57301;50.328;8.542;2023-09-12T10:06:16;98097.72;;;30.68;41.33
69971;BME280;57301;50.328;8.542;2023-09-12T10:08:45;98092.03;;;30.59;41.39
69971;BME280;57301;50.328;8.542;2023-09-12T10:11:16;98091.09;;;30.69;40.03
69971;BME280;57301;50.328;8.542;2023-09-12T10:13:47;98093.16;;;31.01;39.54
69971;BME280;57301;50.328;8.542;2023-09-12T10:16:16;98094.88;;;30.97;39.78
69971;BME280;57301;50.328;8.542;2023-09-12T10:19:00;98096.50;;;30.98;39.92
69971;BME280;57301;50.328;8.542;2023-09-12T10:21:30;98092.72;;;31.13;40.10
69971;BME280;57301;50.328;8.542;2023-09-12T10:24:02;98095.38;;;30.99;39.89
69971;BME280;57301;50.328;8.542;2023-09-12T10:26:31;98086.72;;;30.87;40.41
69971;BME280;57301;50.328;8.542;2023-09-12T10:28:59;98088.97;;;30.85;39.91
69971;BME280;57301;50.328;8.542;2023-09-12T10:31:26;98080.59;;;30.47;39.99
69971;BME280;57301;50.328;8.542;2023-09-12T10:33:53;98082.19;;;30.53;40.79
69971;BME280;57301;50.328;8.542;2023-09-12T10:36:20;98077.59;;;30.19;40.14
69971;BME280;57301;50.328;8.542;2023-09-12T10:38:48;98071.13;;;31.01;39.37
69971;BME280;57301;50.328;8.542;2023-09-12T10:41:16;98076.41;;;30.97;38.44
69971;BME280;57301;50.328;8.542;2023-09-12T10:43:44;98068.75;;;31.83;38.50
69971;BME280;57301;50.328;8.542;2023-09-12T10:46:16;98070.03;;;31.40;37.38
69971;BME280;57301;50.328;8.542;2023-09-12T10:48:43;98081.91;;;30.79;38.47
69971;BME280;57301;50.328;8.542;2023-09-12T10:51:11;98067.97;;;31.32;38.57
69971;BME280;57301;50.328;8.542;2023-09-12T10:53:45;98066.91;;;31.27;39.97
69971;BME280;57301;50.328;8.542;2023-09-12T11:01:35;98071.31;;;31.80;36.82
69971;BME280;57301;50.328;8.542;2023-09-12T11:06:54;98066.53;;;31.34;37.70
69971;BME280;57301;50.328;8.542;2023-09-12T11:09:24;98055.31;;;31.63;37.77
69971;BME280;57301;50.328;8.542;2023-09-12T11:11:56;98056.09;;;32.56;36.07
69971;BME280;57301;50.328;8.542;2023-09-12T11:14:23;98052.59;;;32.78;36.23
69971;BME280;57301;50.328;8.542;2023-09-12T11:19:44;98048.69;;;32.24;37.15
69971;BME280;57301;50.328;8.542;2023-09-12T11:22:21;98047.25;;;32.13;38.21
69971;BME280;57301;50.328;8.542;2023-09-12T11:24:48;98051.38;;;32.57;36.65
69971;BME280;57301;50.328;8.542;2023-09-12T11:27:15;98058.84;;;32.29;37.81
69971;BME280;57301;50.328;8.542;2023-09-12T11:29:41;98050.03;;;33.54;34.63
69971;BME280;57301;50.328;8.542;2023-09-12T11:32:08;98050.22;;;32.99;36.42
69971;BME280;57301;50.328;8.542;2023-09-12T11:37:03;98054.28;;;34.05;36.00
69971;BME280;57301;50.328;8.542;2023-09-12T11:39:33;98050.59;;;33.42;36.38
69971;BME280;57301;50.328;8.542;2023-09-12T11:42:01;98050.94;;;33.94;35.35
69971;BME280;57301;50.328;8.542;2023-09-12T11:44:28;98060.91;;;33.51;37.02
69971;BME280;57301;50.328;8.542;2023-09-12T11:46:54;98054.81;;;34.56;34.39
69971;BME280;57301;50.328;8.542;2023-09-12T11:49:21;98056.16;;;34.67;34.18
69971;BME280;57301;50.328;8.542;2023-09-12T11:51:49;98057.41;;;33.23;36.48
69971;BME280;57301;50.328;8.542;2023-09-12T11:54:25;98057.78;;;34.68;33.73
69971;BME280;57301;50.328;8.542;2023-09-12T11:56:53;98045.81;;;34.02;35.17
69971;BME280;57301;50.328;8.542;2023-09-12T11:59:29;98051.22;;;34.55;34.77
69971;BME280;57301;50.328;8.542;2023-09-12T12:01:56;98054.66;;;33.90;34.88
69971;BME280;57301;50.328;8.542;2023-09-12T12:04:24;98058.63;;;36.07;33.48
69971;BME280;57301;50.328;8.542;2023-09-12T12:06:52;98058.84;;;34.98;34.07
69971;BME280;57301;50.328;8.542;2023-09-12T12:09:19;98052.59;;;34.75;33.90
69971;BME280;57301;50.328;8.542;2023-09-12T12:11:46;98048.56;;;33.57;35.77
69971;BME280;57301;50.328;8.542;2023-09-12T12:14:15;98050.59;;;33.42;36.32
69971;BME280;57301;50.328;8.542;2023-09-12T12:16:42;98045.97;;;35.54;32.99
69971;BME280;57301;50.328;8.542;2023-09-12T12:19:13;98053.78;;;36.33;33.03
69971;BME280;57301;50.328;8.542;2023-09-12T12:21:41;98047.13;;;35.10;33.01
69971;BME280;57301;50.328;8.542;2023-09-12T12:24:13;98053.03;;;35.51;33.03
69971;BME280;57301;50.328;8.542;2023-09-12T12:26:43;98042.63;;;36.13;31.64
69971;BME280;57301;50.328;8.542;2023-09-12T12:29:10;98048.63;;;36.15;32.51
69971;BME280;57301;50.328;8.542;2023-09-12T12:31:40;98045.38;;;36.13;31.18
69971;BME280;57301;50.328;8.542;2023-09-12T12:34:07;98039.81;;;37.52;30.06
69971;BME280;57301;50.328;8.542;2023-09-12T12:36:54;98031.06;;;38.07;29.39
69971;BME280;57301;50.328;8.542;2023-09-12T12:39:24;98037.72;;;38.64;28.85
69971;BME280;57301;50.328;8.542;2023-09-12T12:41:54;98035.31;;;38.50;30.12
69971;BME280;57301;50.328;8.542;2023-09-12T12:44:21;98033.00;;;36.78;31.71
69971;BME280;57301;50.328;8.542;2023-09-12T12:46:49;98039.44;;;35.76;32.73
69971;BME280;57301;50.328;8.542;2023-09-12T12:49:16;98024.34;;;36.50;31.69
69971;BME280;57301;50.328;8.542;2023-09-12T12:51:42;98025.09;;;36.89;31.66
69971;BME280;57301;50.328;8.542;2023-09-12T12:54:09;98034.78;;;36.53;32.34
69971;BME280;57301;50.328;8.542;2023-09-12T12:56:37;98024.50;;;35.42;34.45
69971;BME280;57301;50.328;8.542;2023-09-12T12:59:05;98019.94;;;36.49;34.30
69971;BME280;57301;50.328;8.542;2023-09-12T13:01:34;98021.84;;;37.07;32.86
69971;BME280;57301;50.328;8.542;2023-09-12T13:04:01;98017.63;;;37.76;31.76
69971;BME280;57301;50.328;8.542;2023-09-12T13:06:27;98007.13;;;39.04;30.09
69971;BME280;57301;50.328;8.542;2023-09-12T13:08:58;98017.69;;;37.55;32.26
69971;BME280;57301;50.328;8.542;2023-09-12T13:11:27;98014.16;;;36.83;33.55
69971;BME280;57301;50.328;8.542;2023-09-12T13:13:54;98016.16;;;37.04;33.24
69971;BME280;57301;50.328;8.542;2023-09-12T13:16:21;98017.78;;;36.54;33.96
69971;BME280;57301;50.328;8.542;2023-09-12T13:18:50;98011.41;;;38.37;31.49
69971;BME280;57301;50.328;8.542;2023-09-12T13:21:16;98003.22;;;38.68;32.26